sensor_id;sensor_type;location;lat;lon;timestamp;temperature;humidity
68215;DHT22;55036;52.138;5.236;2023-02-08T00:00:53;0.60;80.00
68215;DHT22;55036;52.138;5.236;2023-02-08T00:03:20;0.50;80.30
68215;DHT22;55036;52.138;5.236;2023-02-08T00:05:47;0.50;80.00
68215;DHT22;55036;52.138;5.236;2023-02-08T00:08:14;0.50;79.60
68215;DHT22;55036;52.138;5.236;2023-02-08T00:10:41;0.50;79.30
68215;DHT22;55036;52.138;5.236;2023-02-08T00:13:08;0.50;79.20
68215;DHT22;55036;52.138;5.236;2023-02-08T00:15:40;0.50;79.20
68215;DHT22;55036;52.138;5.236;2023-02-08T00:18:07;0.50;79.30
68215;DHT22;55036;52.138;5.236;2023-02-08T00:20:36;0.50;79.40
68215;DHT22;55036;52.138;5.236;2023-02-08T00:23:03;0.40;79.90
68215;DHT22;55036;52.138;5.236;2023-02-08T00:25:30;0.30;80.40
68215;DHT22;55036;52.138;5.236;2023-02-08T00:27:57;0.30;80.70
68215;DHT22;55036;52.138;5.236;2023-02-08T00:30:23;0.30;80.80
68215;DHT22;55036;52.138;5.236;2023-02-08T00:32:50;0.40;81.10
68215;DHT22;55036;52.138;5.236;2023-02-08T00:35:17;0.40;80.60
68215;DHT22;55036;52.138;5.236;2023-02-08T00:37:43;0.40;80.50
68215;DHT22;55036;52.138;5.236;2023-02-08T00:40:10;0.40;80.80
68215;DHT22;55036;52.138;5.236;2023-02-08T00:42:37;0.40;81.00
68215;DHT22;55036;52.138;5.236;2023-02-08T00:45:04;0.40;81.00
68215;DHT22;55036;52.138;5.236;2023-02-08T00:47:31;0.50;81.10
68215;DHT22;55036;52.138;5.236;2023-02-08T00:49:57;0.50;80.60
68215;DHT22;55036;52.138;5.236;2023-02-08T00:52:25;0.40;80.10
68215;DHT22;55036;52.138;5.236;2023-02-08T00:54:53;0.40;80.00
68215;DHT22;55036;52.138;5.236;2023-02-08T00:57:19;0.40;80.20
68215;DHT22;55036;52.138;5.236;2023-02-08T00:59:46;0.40;80.20
68215;DHT22;55036;52.138;5.236;2023-02-08T01:02:12;0.30;80.60
68215;DHT22;55036;52.138;5.236;2023-02-08T01:04:39;0.40;80.80
68215;DHT22;55036;52.138;5.236;2023-02-08T01:07:06;0.30;80.70
68215;DHT22;55036;52.138;5.236;2023-02-08T01:09:33;0.30;80.70
68215;DHT22;55036;52.138;5.236;2023-02-08T01:12:00;0.30;80.80
68215;DHT22;55036;52.138;5.236;2023-02-08T01:14:27;0.30;80.90
68215;DHT22;55036;52.138;5.236;2023-02-08T01:16:53;0.30;80.50
68215;DHT22;55036;52.138;5.236;2023-02-08T01:19:20;0.30;80.50
68215;DHT22;55036;52.138;5.236;2023-02-08T01:21:47;0.20;80.60
68215;DHT22;55036;52.138;5.236;2023-02-08T01:24:17;0.20;80.60
68215;DHT22;55036;52.138;5.236;2023-02-08T01:26:43;0.20;80.60
68215;DHT22;55036;52.138;5.236;2023-02-08T01:29:10;0.20;80.50
68215;DHT22;55036;52.138;5.236;2023-02-08T01:31:39;0.20;80.60
68215;DHT22;55036;52.138;5.236;2023-02-08T01:34:06;0.20;80.60
68215;DHT22;55036;52.138;5.236;2023-02-08T01:36:35;0.20;80.70
68215;DHT22;55036;52.138;5.236;2023-02-08T01:39:03;0.10;80.70
68215;DHT22;55036;52.138;5.236;2023-02-08T01:41:33;0.10;80.30
68215;DHT22;55036;52.138;5.236;2023-02-08T01:46:30;0.10;80.00
68215;DHT22;55036;52.138;5.236;2023-02-08T01:49:01;0.00;80.00
68215;DHT22;55036;52.138;5.236;2023-02-08T01:51:32;0.00;80.00
68215;DHT22;55036;52.138;5.236;2023-02-08T01:54:01;0.00;80.30
68215;DHT22;55036;52.138;5.236;2023-02-08T01:56:38;0.00;80.60
68215;DHT22;55036;52.138;5.236;2023-02-08T01:59:13;0.00;80.60
68215;DHT22;55036;52.138;5.236;2023-02-08T02:01:45;0.00;80.40
68215;DHT22;55036;52.138;5.236;2023-02-08T02:04:13;-0.10;80.40
68215;DHT22;55036;52.138;5.236;2023-02-08T02:06:46;-0.10;80.30
68215;DHT22;55036;52.138;5.236;2023-02-08T02:09:40;-0.10;80.60
68215;DHT22;55036;52.138;5.236;2023-02-08T02:12:08;-0.10;80.60
68215;DHT22;55036;52.138;5.236;2023-02-08T02:14:38;-0.10;80.60
68215;DHT22;55036;52.138;5.236;2023-02-08T02:17:05;-0.10;80.40
68215;DHT22;55036;52.138;5.236;2023-02-08T02:19:54;-0.10;80.40
68215;DHT22;55036;52.138;5.236;2023-02-08T02:31:10;-0.20;80.60
68215;DHT22;55036;52.138;5.236;2023-02-08T02:33:52;-0.20;80.70
68215;DHT22;55036;52.138;5.236;2023-02-08T02:36:50;-0.20;80.70
68215;DHT22;55036;52.138;5.236;2023-02-08T02:42:00;-0.20;80.60
68215;DHT22;55036;52.138;5.236;2023-02-08T02:47:50;-0.30;80.50
68215;DHT22;55036;52.138;5.236;2023-02-08T02:53:41;-0.40;80.90
68215;DHT22;55036;52.138;5.236;2023-02-08T02:55:55;-0.40;80.80
68215;DHT22;55036;52.138;5.236;2023-02-08T02:58:25;-0.40;80.90
68215;DHT22;55036;52.138;5.236;2023-02-08T03:00:54;-0.40;80.60
68215;DHT22;55036;52.138;5.236;2023-02-08T03:03:24;-0.40;80.30
68215;DHT22;55036;52.138;5.236;2023-02-08T03:05:56;-0.50;80.50
68215;DHT22;55036;52.138;5.236;2023-02-08T03:11:36;-0.50;80.80
68215;DHT22;55036;52.138;5.236;2023-02-08T03:14:29;-0.50;80.50
68215;DHT22;55036;52.138;5.236;2023-02-08T03:19:44;-0.50;80.50
68215;DHT22;55036;52.138;5.236;2023-02-08T03:22:18;-0.50;80.60
68215;DHT22;55036;52.138;5.236;2023-02-08T03:25:09;-0.60;80.60
68215;DHT22;55036;52.138;5.236;2023-02-08T03:27:43;-0.50;80.40
68215;DHT22;55036;52.138;5.236;2023-02-08T03:30:37;-0.60;80.30
68215;DHT22;55036;52.138;5.236;2023-02-08T03:33:20;-0.60;80.40
68215;DHT22;55036;52.138;5.236;2023-02-08T03:35:50;-0.60;80.80
68215;DHT22;55036;52.138;5.236;2023-02-08T03:38:26;-0.60;80.70
68215;DHT22;55036;52.138;5.236;2023-02-08T03:40:57;-0.60;80.80
68215;DHT22;55036;52.138;5.236;2023-02-08T03:43:41;-0.60;80.30
68215;DHT22;55036;52.138;5.236;2023-02-08T03:48:38;-0.70;80.20
68215;DHT22;55036;52.138;5.236;2023-02-08T03:51:06;-0.70;80.30
68215;DHT22;55036;52.138;5.236;2023-02-08T03:53:36;-0.80;80.60
68215;DHT22;55036;52.138;5.236;2023-02-08T03:56:18;-0.80;81.60
68215;DHT22;55036;52.138;5.236;2023-02-08T03:58:58;-0.80;80.50
68215;DHT22;55036;52.138;5.236;2023-02-08T04:01:31;-0.80;80.70
68215;DHT22;55036;52.138;5.236;2023-02-08T04:03:59;-0.80;80.70
68215;DHT22;55036;52.138;5.236;2023-02-08T04:06:26;-0.80;80.40
68215;DHT22;55036;52.138;5.236;2023-02-08T04:08:53;-0.90;80.30
68215;DHT22;55036;52.138;5.236;2023-02-08T04:11:21;-0.80;80.40
68215;DHT22;55036;52.138;5.236;2023-02-08T04:13:48;-0.80;80.30
68215;DHT22;55036;52.138;5.236;2023-02-08T04:16:14;-0.80;80.30
68215;DHT22;55036;52.138;5.236;2023-02-08T04:18:41;-0.80;80.50
68215;DHT22;55036;52.138;5.236;2023-02-08T04:21:08;-0.80;80.70
68215;DHT22;55036;52.138;5.236;2023-02-08T04:23:35;-0.80;80.50
68215;DHT22;55036;52.138;5.236;2023-02-08T04:26:01;-0.80;80.60
68215;DHT22;55036;52.138;5.236;2023-02-08T04:28:29;-0.80;80.60
68215;DHT22;55036;52.138;5.236;2023-02-08T04:30:56;-0.80;80.90
68215;DHT22;55036;52.138;5.236;2023-02-08T04:33:23;-0.80;81.60
68215;DHT22;55036;52.138;5.236;2023-02-08T04:35:51;-0.90;80.30
68215;DHT22;55036;52.138;5.236;2023-02-08T04:38:17;-0.90;80.50
68215;DHT22;55036;52.138;5.236;2023-02-08T04:40:44;-0.90;80.30
68215;DHT22;55036;52.138;5.236;2023-02-08T04:43:11;-0.90;80.60
68215;DHT22;55036;52.138;5.236;2023-02-08T04:45:37;-0.90;80.50
68215;DHT22;55036;52.138;5.236;2023-02-08T04:48:04;-0.90;80.40
68215;DHT22;55036;52.138;5.236;2023-02-08T04:50:33;-1.00;80.40
68215;DHT22;55036;52.138;5.236;2023-02-08T04:53:00;-1.00;80.70
68215;DHT22;55036;52.138;5.236;2023-02-08T04:55:27;-1.00;80.60
68215;DHT22;55036;52.138;5.236;2023-02-08T04:57:53;-1.00;80.40
68215;DHT22;55036;52.138;5.236;2023-02-08T05:00:20;-1.00;80.40
68215;DHT22;55036;52.138;5.236;2023-02-08T05:02:47;-1.00;80.40
68215;DHT22;55036;52.138;5.236;2023-02-08T05:05:13;-1.00;80.60
68215;DHT22;55036;52.138;5.236;2023-02-08T05:07:40;-1.00;80.90
68215;DHT22;55036;52.138;5.236;2023-02-08T05:10:07;-1.00;81.00
68215;DHT22;55036;52.138;5.236;2023-02-08T05:12:34;-1.00;81.00
68215;DHT22;55036;52.138;5.236;2023-02-08T05:15:01;-1.00;80.50
68215;DHT22;55036;52.138;5.236;2023-02-08T05:17:27;-1.10;80.30
68215;DHT22;55036;52.138;5.236;2023-02-08T05:19:54;-1.10;80.40
68215;DHT22;55036;52.138;5.236;2023-02-08T05:22:21;-1.10;80.40
68215;DHT22;55036;52.138;5.236;2023-02-08T05:24:48;-1.10;80.60
68215;DHT22;55036;52.138;5.236;2023-02-08T05:27:14;-1.10;80.90
68215;DHT22;55036;52.138;5.236;2023-02-08T05:29:41;-1.10;80.70
68215;DHT22;55036;52.138;5.236;2023-02-08T05:32:08;-1.10;80.30
68215;DHT22;55036;52.138;5.236;2023-02-08T05:34:36;-1.20;80.40
68215;DHT22;55036;52.138;5.236;2023-02-08T05:37:03;-1.20;80.50
68215;DHT22;55036;52.138;5.236;2023-02-08T05:39:30;-1.20;80.30
68215;DHT22;55036;52.138;5.236;2023-02-08T05:41:56;-1.30;80.40
68215;DHT22;55036;52.138;5.236;2023-02-08T05:44:23;-1.30;80.50
68215;DHT22;55036;52.138;5.236;2023-02-08T05:46:50;-1.30;80.50
68215;DHT22;55036;52.138;5.236;2023-02-08T05:49:16;-1.30;80.40
68215;DHT22;55036;52.138;5.236;2023-02-08T05:51:43;-1.30;80.60
68215;DHT22;55036;52.138;5.236;2023-02-08T05:54:10;-1.30;80.80
68215;DHT22;55036;52.138;5.236;2023-02-08T05:56:37;-1.30;81.00
68215;DHT22;55036;52.138;5.236;2023-02-08T05:59:04;-1.30;80.90
68215;DHT22;55036;52.138;5.236;2023-02-08T06:01:30;-1.30;80.60
68215;DHT22;55036;52.138;5.236;2023-02-08T06:03:58;-1.30;80.30
68215;DHT22;55036;52.138;5.236;2023-02-08T06:06:26;-1.40;80.50
68215;DHT22;55036;52.138;5.236;2023-02-08T06:08:53;-1.40;80.70
68215;DHT22;55036;52.138;5.236;2023-02-08T06:11:20;-1.30;80.50
68215;DHT22;55036;52.138;5.236;2023-02-08T06:13:47;-1.30;80.60
68215;DHT22;55036;52.138;5.236;2023-02-08T06:16:14;-1.30;80.70
68215;DHT22;55036;52.138;5.236;2023-02-08T06:18:43;-1.30;80.60
68215;DHT22;55036;52.138;5.236;2023-02-08T06:21:09;-1.40;80.50
68215;DHT22;55036;52.138;5.236;2023-02-08T06:23:37;-1.40;80.60
68215;DHT22;55036;52.138;5.236;2023-02-08T06:26:04;-1.40;80.50
68215;DHT22;55036;52.138;5.236;2023-02-08T06:28:31;-1.40;80.60
68215;DHT22;55036;52.138;5.236;2023-02-08T06:30:58;-1.40;80.80
68215;DHT22;55036;52.138;5.236;2023-02-08T06:33:24;-1.40;81.40
68215;DHT22;55036;52.138;5.236;2023-02-08T06:35:52;-1.40;81.50
68215;DHT22;55036;52.138;5.236;2023-02-08T06:38:19;-1.40;80.90
68215;DHT22;55036;52.138;5.236;2023-02-08T06:40:47;-1.40;80.70
68215;DHT22;55036;52.138;5.236;2023-02-08T06:43:15;-1.40;80.70
68215;DHT22;55036;52.138;5.236;2023-02-08T06:45:45;-1.40;80.70
68215;DHT22;55036;52.138;5.236;2023-02-08T06:48:13;-1.50;80.70
68215;DHT22;55036;52.138;5.236;2023-02-08T06:50:40;-1.40;80.50
68215;DHT22;55036;52.138;5.236;2023-02-08T06:53:07;-1.40;80.70
68215;DHT22;55036;52.138;5.236;2023-02-08T06:55:34;-1.40;80.80
68215;DHT22;55036;52.138;5.236;2023-02-08T06:58:01;-1.40;80.80
68215;DHT22;55036;52.138;5.236;2023-02-08T07:00:27;-1.40;80.70
68215;DHT22;55036;52.138;5.236;2023-02-08T07:02:54;-1.40;81.00
68215;DHT22;55036;52.138;5.236;2023-02-08T07:05:21;-1.40;81.40
68215;DHT22;55036;52.138;5.236;2023-02-08T07:07:47;-1.40;81.20
68215;DHT22;55036;52.138;5.236;2023-02-08T07:10:14;-1.40;81.20
68215;DHT22;55036;52.138;5.236;2023-02-08T07:12:41;-1.40;81.20
68215;DHT22;55036;52.138;5.236;2023-02-08T07:15:08;-1.40;81.20
68215;DHT22;55036;52.138;5.236;2023-02-08T07:17:38;-1.40;80.90
68215;DHT22;55036;52.138;5.236;2023-02-08T07:20:05;-1.50;80.70
68215;DHT22;55036;52.138;5.236;2023-02-08T07:22:32;-1.50;80.60
68215;DHT22;55036;52.138;5.236;2023-02-08T07:24:59;-1.50;80.70
68215;DHT22;55036;52.138;5.236;2023-02-08T07:27:26;-1.50;80.80
68215;DHT22;55036;52.138;5.236;2023-02-08T07:29:53;-1.40;81.20
68215;DHT22;55036;52.138;5.236;2023-02-08T07:32:19;-1.40;81.60
68215;DHT22;55036;52.138;5.236;2023-02-08T07:34:46;-1.40;81.80
68215;DHT22;55036;52.138;5.236;2023-02-08T07:37:13;-1.40;81.80
68215;DHT22;55036;52.138;5.236;2023-02-08T07:39:39;-1.50;81.80
68215;DHT22;55036;52.138;5.236;2023-02-08T07:42:08;-1.50;81.30
68215;DHT22;55036;52.138;5.236;2023-02-08T07:44:36;-1.50;81.20
68215;DHT22;55036;52.138;5.236;2023-02-08T07:47:04;-1.50;81.20
68215;DHT22;55036;52.138;5.236;2023-02-08T07:49:32;-1.50;81.10
68215;DHT22;55036;52.138;5.236;2023-02-08T07:52:00;-1.50;81.10
68215;DHT22;55036;52.138;5.236;2023-02-08T07:54:27;-1.50;81.10
68215;DHT22;55036;52.138;5.236;2023-02-08T07:56:55;-1.40;81.20
68215;DHT22;55036;52.138;5.236;2023-02-08T07:59:22;-1.30;81.70
68215;DHT22;55036;52.138;5.236;2023-02-08T08:01:48;-1.30;81.70
68215;DHT22;55036;52.138;5.236;2023-02-08T08:04:15;-1.20;81.70
68215;DHT22;55036;52.138;5.236;2023-02-08T08:06:42;-1.20;81.60
68215;DHT22;55036;52.138;5.236;2023-02-08T08:09:08;-1.10;82.00
68215;DHT22;55036;52.138;5.236;2023-02-08T08:11:35;-1.10;81.90
68215;DHT22;55036;52.138;5.236;2023-02-08T08:14:02;-1.10;81.90
68215;DHT22;55036;52.138;5.236;2023-02-08T08:16:29;-0.90;82.40
68215;DHT22;55036;52.138;5.236;2023-02-08T08:18:55;-0.80;82.30
68215;DHT22;55036;52.138;5.236;2023-02-08T08:21:22;-0.70;82.50
68215;DHT22;55036;52.138;5.236;2023-02-08T08:23:49;-0.60;82.70
68215;DHT22;55036;52.138;5.236;2023-02-08T08:26:19;-0.50;82.70
68215;DHT22;55036;52.138;5.236;2023-02-08T08:28:46;-0.40;82.30
68215;DHT22;55036;52.138;5.236;2023-02-08T08:31:16;-0.20;82.50
68215;DHT22;55036;52.138;5.236;2023-02-08T08:33:43;-0.10;82.00
68215;DHT22;55036;52.138;5.236;2023-02-08T08:36:10;0.00;82.60
68215;DHT22;55036;52.138;5.236;2023-02-08T08:38:37;0.20;82.60
68215;DHT22;55036;52.138;5.236;2023-02-08T08:41:09;0.30;79.30
68215;DHT22;55036;52.138;5.236;2023-02-08T08:43:36;0.40;80.50
68215;DHT22;55036;52.138;5.236;2023-02-08T08:46:05;0.60;81.00
68215;DHT22;55036;52.138;5.236;2023-02-08T08:48:33;0.70;80.70
68215;DHT22;55036;52.138;5.236;2023-02-08T08:51:00;0.80;80.40
68215;DHT22;55036;52.138;5.236;2023-02-08T08:53:27;0.90;80.40
68215;DHT22;55036;52.138;5.236;2023-02-08T08:55:54;0.90;80.20
68215;DHT22;55036;52.138;5.236;2023-02-08T08:58:21;1.10;79.20
68215;DHT22;55036;52.138;5.236;2023-02-08T09:00:47;1.30;80.20
68215;DHT22;55036;52.138;5.236;2023-02-08T09:03:14;1.50;78.90
68215;DHT22;55036;52.138;5.236;2023-02-08T09:05:41;1.70;78.80
68215;DHT22;55036;52.138;5.236;2023-02-08T09:08:08;1.90;77.90
68215;DHT22;55036;52.138;5.236;2023-02-08T09:10:34;2.10;79.00
68215;DHT22;55036;52.138;5.236;2023-02-08T09:13:01;2.30;78.90
68215;DHT22;55036;52.138;5.236;2023-02-08T09:15:28;2.70;79.20
68215;DHT22;55036;52.138;5.236;2023-02-08T09:17:54;2.90;77.40
68215;DHT22;55036;52.138;5.236;2023-02-08T09:20:21;3.10;77.50
68215;DHT22;55036;52.138;5.236;2023-02-08T09:22:49;3.30;77.20
68215;DHT22;55036;52.138;5.236;2023-02-08T09:25:16;3.40;70.30
68215;DHT22;55036;52.138;5.236;2023-02-08T09:27:42;3.50;75.60
68215;DHT22;55036;52.138;5.236;2023-02-08T09:30:09;3.70;73.90
68215;DHT22;55036;52.138;5.236;2023-02-08T09:32:36;3.90;73.70
68215;DHT22;55036;52.138;5.236;2023-02-08T09:35:06;3.80;72.90
68215;DHT22;55036;52.138;5.236;2023-02-08T09:37:33;4.00;69.60
68215;DHT22;55036;52.138;5.236;2023-02-08T09:40:00;4.00;70.70
68215;DHT22;55036;52.138;5.236;2023-02-08T09:45:15;4.30;70.70
68215;DHT22;55036;52.138;5.236;2023-02-08T09:50:43;4.40;66.80
68215;DHT22;55036;52.138;5.236;2023-02-08T09:53:28;4.40;67.10
68215;DHT22;55036;52.138;5.236;2023-02-08T09:56:03;4.50;66.60
68215;DHT22;55036;52.138;5.236;2023-02-08T09:58:38;4.70;66.40
68215;DHT22;55036;52.138;5.236;2023-02-08T10:01:18;4.80;65.70
68215;DHT22;55036;52.138;5.236;2023-02-08T10:03:48;4.90;65.10
68215;DHT22;55036;52.138;5.236;2023-02-08T10:06:17;4.90;65.00
68215;DHT22;55036;52.138;5.236;2023-02-08T10:08:48;5.00;64.20
68215;DHT22;55036;52.138;5.236;2023-02-08T10:11:32;5.10;64.90
68215;DHT22;55036;52.138;5.236;2023-02-08T10:25:19;5.70;61.90
68215;DHT22;55036;52.138;5.236;2023-02-08T10:33:30;6.10;62.70
68215;DHT22;55036;52.138;5.236;2023-02-08T10:35:57;6.20;57.70
68215;DHT22;55036;52.138;5.236;2023-02-08T10:38:25;6.20;56.70
68215;DHT22;55036;52.138;5.236;2023-02-08T10:41:13;6.20;57.50
68215;DHT22;55036;52.138;5.236;2023-02-08T10:43:48;6.20;57.40
68215;DHT22;55036;52.138;5.236;2023-02-08T10:46:41;6.20;55.40
68215;DHT22;55036;52.138;5.236;2023-02-08T10:51:36;6.30;54.90
68215;DHT22;55036;52.138;5.236;2023-02-08T10:54:03;6.40;55.70
68215;DHT22;55036;52.138;5.236;2023-02-08T10:56:45;6.40;55.30
68215;DHT22;55036;52.138;5.236;2023-02-08T11:01:44;6.40;53.80
68215;DHT22;55036;52.138;5.236;2023-02-08T11:04:12;6.40;55.00
68215;DHT22;55036;52.138;5.236;2023-02-08T11:06:41;6.50;55.20
68215;DHT22;55036;52.138;5.236;2023-02-08T11:09:23;6.70;55.60
68215;DHT22;55036;52.138;5.236;2023-02-08T11:11:51;6.90;56.20
68215;DHT22;55036;52.138;5.236;2023-02-08T11:14:24;7.00;55.00
68215;DHT22;55036;52.138;5.236;2023-02-08T11:17:03;7.10;54.20
68215;DHT22;55036;52.138;5.236;2023-02-08T11:19:38;7.20;57.40
68215;DHT22;55036;52.138;5.236;2023-02-08T11:22:19;7.50;56.80
68215;DHT22;55036;52.138;5.236;2023-02-08T11:24:59;7.50;55.20
68215;DHT22;55036;52.138;5.236;2023-02-08T11:27:34;7.50;53.50
68215;DHT22;55036;52.138;5.236;2023-02-08T11:32:48;7.50;52.30
68215;DHT22;55036;52.138;5.236;2023-02-08T11:35:33;7.50;53.30
68215;DHT22;55036;52.138;5.236;2023-02-08T11:38:01;7.50;50.80
68215;DHT22;55036;52.138;5.236;2023-02-08T11:40:35;7.50;53.20
68215;DHT22;55036;52.138;5.236;2023-02-08T11:43:02;7.60;52.40
68215;DHT22;55036;52.138;5.236;2023-02-08T11:45:34;7.60;50.40
68215;DHT22;55036;52.138;5.236;2023-02-08T11:48:02;7.50;49.70
68215;DHT22;55036;52.138;5.236;2023-02-08T11:50:34;7.50;50.00
68215;DHT22;55036;52.138;5.236;2023-02-08T11:53:07;7.60;51.00
68215;DHT22;55036;52.138;5.236;2023-02-08T11:55:42;7.70;49.40
68215;DHT22;55036;52.138;5.236;2023-02-08T11:58:23;7.60;49.40
68215;DHT22;55036;52.138;5.236;2023-02-08T12:01:04;7.60;48.60
68215;DHT22;55036;52.138;5.236;2023-02-08T12:03:39;7.60;44.70
68215;DHT22;55036;52.138;5.236;2023-02-08T12:15:06;7.60;47.50
68215;DHT22;55036;52.138;5.236;2023-02-08T12:17:58;7.60;46.80
68215;DHT22;55036;52.138;5.236;2023-02-08T12:20:42;7.60;47.50
68215;DHT22;55036;52.138;5.236;2023-02-08T12:26:06;7.80;48.30
68215;DHT22;55036;52.138;5.236;2023-02-08T12:34:51;7.90;47.30
68215;DHT22;55036;52.138;5.236;2023-02-08T12:49:21;7.90;45.90
68215;DHT22;55036;52.138;5.236;2023-02-08T12:54:49;8.10;46.40
68215;DHT22;55036;52.138;5.236;2023-02-08T12:57:21;8.30;46.20
68215;DHT22;55036;52.138;5.236;2023-02-08T13:00:19;8.30;44.50
68215;DHT22;55036;52.138;5.236;2023-02-08T13:03:02;8.40;45.90
68215;DHT22;55036;52.138;5.236;2023-02-08T13:05:37;8.50;41.20
68215;DHT22;55036;52.138;5.236;2023-02-08T13:08:33;8.30;43.90
68215;DHT22;55036;52.138;5.236;2023-02-08T13:11:22;8.40;43.60
68215;DHT22;55036;52.138;5.236;2023-02-08T13:14:02;8.40;44.00
68215;DHT22;55036;52.138;5.236;2023-02-08T13:16:38;8.40;43.00
68215;DHT22;55036;52.138;5.236;2023-02-08T13:21:55;8.40;42.80
68215;DHT22;55036;52.138;5.236;2023-02-08T13:24:38;8.50;41.90
68215;DHT22;55036;52.138;5.236;2023-02-08T13:27:05;8.30;42.90
68215;DHT22;55036;52.138;5.236;2023-02-08T13:29:35;8.30;42.30
68215;DHT22;55036;52.138;5.236;2023-02-08T13:32:07;8.40;43.00
68215;DHT22;55036;52.138;5.236;2023-02-08T13:34:41;8.40;42.30
68215;DHT22;55036;52.138;5.236;2023-02-08T13:37:24;8.30;41.90
68215;DHT22;55036;52.138;5.236;2023-02-08T13:40:17;8.20;40.60
68215;DHT22;55036;52.138;5.236;2023-02-08T13:43:03;8.20;41.60
68215;DHT22;55036;52.138;5.236;2023-02-08T13:45:37;8.20;41.20
68215;DHT22;55036;52.138;5.236;2023-02-08T13:48:06;8.10;38.20
68215;DHT22;55036;52.138;5.236;2023-02-08T13:53:01;8.10;40.90
68215;DHT22;55036;52.138;5.236;2023-02-08T13:58:01;8.20;40.70
68215;DHT22;55036;52.138;5.236;2023-02-08T14:00:31;8.30;41.00
68215;DHT22;55036;52.138;5.236;2023-02-08T14:05:50;8.20;40.10
68215;DHT22;55036;52.138;5.236;2023-02-08T14:08:22;8.10;41.30
68215;DHT22;55036;52.138;5.236;2023-02-08T14:11:29;8.10;38.70
68215;DHT22;55036;52.138;5.236;2023-02-08T14:14:01;8.10;38.40
68215;DHT22;55036;52.138;5.236;2023-02-08T14:16:34;8.00;39.30
68215;DHT22;55036;52.138;5.236;2023-02-08T14:21:45;8.00;40.30
68215;DHT22;55036;52.138;5.236;2023-02-08T14:24:23;8.00;41.50
68215;DHT22;55036;52.138;5.236;2023-02-08T14:32:33;8.00;40.80
68215;DHT22;55036;52.138;5.236;2023-02-08T14:37:40;7.90;39.20
68215;DHT22;55036;52.138;5.236;2023-02-08T14:45:44;7.90;40.00
68215;DHT22;55036;52.138;5.236;2023-02-08T14:48:30;7.90;39.50
68215;DHT22;55036;52.138;5.236;2023-02-08T14:53:47;7.80;40.40
68215;DHT22;55036;52.138;5.236;2023-02-08T14:59:15;7.80;40.70
68215;DHT22;55036;52.138;5.236;2023-02-08T15:01:53;7.80;41.20
68215;DHT22;55036;52.138;5.236;2023-02-08T15:04:21;7.90;41.40
68215;DHT22;55036;52.138;5.236;2023-02-08T15:07:07;7.80;41.20
68215;DHT22;55036;52.138;5.236;2023-02-08T15:09:40;7.70;41.40
68215;DHT22;55036;52.138;5.236;2023-02-08T15:14:40;7.70;41.70
68215;DHT22;55036;52.138;5.236;2023-02-08T15:17:20;7.70;42.00
68215;DHT22;55036;52.138;5.236;2023-02-08T15:19:49;7.70;42.30
68215;DHT22;55036;52.138;5.236;2023-02-08T15:27:48;7.80;42.60
68215;DHT22;55036;52.138;5.236;2023-02-08T15:30:32;7.80;42.60
68215;DHT22;55036;52.138;5.236;2023-02-08T15:33:01;7.80;42.90
68215;DHT22;55036;52.138;5.236;2023-02-08T15:35:31;7.80;41.80
68215;DHT22;55036;52.138;5.236;2023-02-08T15:37:58;7.70;42.90
68215;DHT22;55036;52.138;5.236;2023-02-08T15:40:29;7.60;42.40
68215;DHT22;55036;52.138;5.236;2023-02-08T15:43:10;7.60;42.00
68215;DHT22;55036;52.138;5.236;2023-02-08T15:45:37;7.60;41.80
68215;DHT22;55036;52.138;5.236;2023-02-08T15:48:05;7.60;42.30
68215;DHT22;55036;52.138;5.236;2023-02-08T15:50:32;7.70;42.40
68215;DHT22;55036;52.138;5.236;2023-02-08T15:53:05;7.60;42.60
68215;DHT22;55036;52.138;5.236;2023-02-08T15:55:38;7.60;42.20
68215;DHT22;55036;52.138;5.236;2023-02-08T15:58:28;7.60;42.30
68215;DHT22;55036;52.138;5.236;2023-02-08T16:00:58;7.50;41.80
68215;DHT22;55036;52.138;5.236;2023-02-08T16:03:27;7.50;41.90
68215;DHT22;55036;52.138;5.236;2023-02-08T16:05:56;7.50;41.80
68215;DHT22;55036;52.138;5.236;2023-02-08T16:08:26;7.50;42.10
68215;DHT22;55036;52.138;5.236;2023-02-08T16:11:18;7.40;42.00
68215;DHT22;55036;52.138;5.236;2023-02-08T16:13:48;7.40;41.90
68215;DHT22;55036;52.138;5.236;2023-02-08T16:16:39;7.30;42.00
68215;DHT22;55036;52.138;5.236;2023-02-08T16:19:28;7.30;41.80
68215;DHT22;55036;52.138;5.236;2023-02-08T16:24:46;7.20;42.00
68215;DHT22;55036;52.138;5.236;2023-02-08T16:27:24;7.10;42.10
68215;DHT22;55036;52.138;5.236;2023-02-08T16:29:51;7.10;42.30
68215;DHT22;55036;52.138;5.236;2023-02-08T16:32:31;7.10;42.30
68215;DHT22;55036;52.138;5.236;2023-02-08T16:34:59;7.00;42.50
68215;DHT22;55036;52.138;5.236;2023-02-08T16:37:36;6.90;42.80
68215;DHT22;55036;52.138;5.236;2023-02-08T16:40:08;6.80;42.80
68215;DHT22;55036;52.138;5.236;2023-02-08T16:43:16;6.80;43.00
68215;DHT22;55036;52.138;5.236;2023-02-08T16:45:43;6.60;43.20
68215;DHT22;55036;52.138;5.236;2023-02-08T16:48:31;6.50;44.30
68215;DHT22;55036;52.138;5.236;2023-02-08T16:51:02;6.40;43.60
68215;DHT22;55036;52.138;5.236;2023-02-08T16:53:30;6.40;43.90
68215;DHT22;55036;52.138;5.236;2023-02-08T16:56:07;6.30;44.10
68215;DHT22;55036;52.138;5.236;2023-02-08T16:58:34;6.20;45.00
68215;DHT22;55036;52.138;5.236;2023-02-08T17:01:01;6.00;45.40
68215;DHT22;55036;52.138;5.236;2023-02-08T17:03:28;5.90;46.10
68215;DHT22;55036;52.138;5.236;2023-02-08T17:05:56;5.80;46.60
68215;DHT22;55036;52.138;5.236;2023-02-08T17:08:22;5.70;47.10
68215;DHT22;55036;52.138;5.236;2023-02-08T17:10:49;5.60;47.30
68215;DHT22;55036;52.138;5.236;2023-02-08T17:13:18;5.50;47.70
68215;DHT22;55036;52.138;5.236;2023-02-08T17:15:48;5.30;48.10
68215;DHT22;55036;52.138;5.236;2023-02-08T17:18:16;5.20;48.60
68215;DHT22;55036;52.138;5.236;2023-02-08T17:20:43;5.20;48.60
68215;DHT22;55036;52.138;5.236;2023-02-08T17:23:11;5.10;49.00
68215;DHT22;55036;52.138;5.236;2023-02-08T17:25:38;5.00;49.50
68215;DHT22;55036;52.138;5.236;2023-02-08T17:28:09;4.90;49.80
68215;DHT22;55036;52.138;5.236;2023-02-08T17:30:39;4.80;50.10
68215;DHT22;55036;52.138;5.236;2023-02-08T17:33:07;4.70;50.20
68215;DHT22;55036;52.138;5.236;2023-02-08T17:35:37;4.60;50.70
68215;DHT22;55036;52.138;5.236;2023-02-08T17:38:04;4.50;51.00
68215;DHT22;55036;52.138;5.236;2023-02-08T17:40:34;4.40;50.70
68215;DHT22;55036;52.138;5.236;2023-02-08T17:43:02;4.40;50.90
68215;DHT22;55036;52.138;5.236;2023-02-08T17:45:29;4.30;51.20
68215;DHT22;55036;52.138;5.236;2023-02-08T17:47:58;4.20;51.40
68215;DHT22;55036;52.138;5.236;2023-02-08T17:50:25;4.20;51.60
68215;DHT22;55036;52.138;5.236;2023-02-08T17:52:52;4.10;51.50
68215;DHT22;55036;52.138;5.236;2023-02-08T17:55:19;4.00;51.80
68215;DHT22;55036;52.138;5.236;2023-02-08T17:57:46;4.00;52.10
68215;DHT22;55036;52.138;5.236;2023-02-08T18:00:17;3.90;52.30
68215;DHT22;55036;52.138;5.236;2023-02-08T18:02:48;3.90;52.30
68215;DHT22;55036;52.138;5.236;2023-02-08T18:05:17;3.80;52.40
68215;DHT22;55036;52.138;5.236;2023-02-08T18:07:44;3.80;52.90
68215;DHT22;55036;52.138;5.236;2023-02-08T18:10:12;3.70;52.80
68215;DHT22;55036;52.138;5.236;2023-02-08T18:12:38;3.70;52.90
68215;DHT22;55036;52.138;5.236;2023-02-08T18:15:07;3.70;52.80
68215;DHT22;55036;52.138;5.236;2023-02-08T18:17:34;3.70;53.00